createdAt,value
2022-10-02T00:00:01.762Z,2
2022-10-02T00:05:02.128Z,3
2022-10-02T00:10:01.630Z,1
2022-10-02T00:15:02.100Z,2
2022-10-02T00:20:01.639Z,2
2022-10-02T00:25:01.976Z,1
2022-10-02T00:30:01.440Z,2
2022-10-02T00:35:01.775Z,1
2022-10-02T00:40:02.277Z,2
2022-10-02T00:45:01.620Z,2
2022-10-02T00:50:01.981Z,2
2022-10-02T00:55:01.317Z,1
2022-10-02T01:00:01.809Z,1
2022-10-02T01:05:02.275Z,1
2022-10-02T01:10:01.798Z,1
2022-10-02T01:15:02.178Z,2
2022-10-02T01:20:01.601Z,1
2022-10-02T01:25:02.065Z,1
2022-10-02T01:30:01.451Z,1
2022-10-02T01:35:01.801Z,2
2022-10-02T01:40:02.309Z,1
2022-10-02T01:45:01.782Z,1
2022-10-02T01:50:02.108Z,1
2022-10-02T01:55:01.570Z,1
2022-10-02T02:00:01.950Z,1
2022-10-02T02:05:02.298Z,2
2022-10-02T02:10:01.691Z,2
2022-10-02T02:15:02.225Z,1
2022-10-02T02:20:01.786Z,2
2022-10-02T02:25:02.136Z,1
2022-10-02T02:30:01.617Z,1
2022-10-02T02:35:01.965Z,2
2022-10-02T02:40:01.352Z,2
2022-10-02T02:45:01.712Z,1
2022-10-02T02:50:02.067Z,1
2022-10-02T02:55:01.539Z,1
2022-10-02T03:00:01.901Z,1
2022-10-02T03:05:02.267Z,2
2022-10-02T03:10:01.643Z,1
2022-10-02T03:15:02.016Z,2
2022-10-02T03:20:01.454Z,1
2022-10-02T03:25:01.817Z,1
2022-10-02T03:30:02.191Z,1
2022-10-02T03:35:01.592Z,2
2022-10-02T03:40:02.102Z,1
2022-10-02T03:45:01.490Z,1
2022-10-02T03:50:01.966Z,1
2022-10-02T03:55:01.347Z,1
2022-10-02T04:00:01.840Z,1
2022-10-02T04:05:02.303Z,1
2022-10-02T04:10:01.680Z,1
2022-10-02T04:15:02.058Z,1
2022-10-02T04:20:01.477Z,1
2022-10-02T04:25:01.829Z,1
2022-10-02T04:30:01.832Z,0
2022-10-02T04:35:02.289Z,1
2022-10-02T04:40:01.665Z,0
2022-10-02T04:45:02.038Z,0
2022-10-02T04:50:01.479Z,1
2022-10-02T04:55:01.817Z,1
2022-10-02T05:00:02.206Z,1
2022-10-02T05:05:01.545Z,1
2022-10-02T05:10:02.053Z,1
2022-10-02T05:15:01.431Z,1
2022-10-02T05:20:01.862Z,0
2022-10-02T05:25:02.327Z,1
2022-10-02T05:30:01.796Z,1
2022-10-02T05:35:02.149Z,0
2022-10-02T05:40:01.530Z,1
2022-10-02T05:45:02.015Z,0
2022-10-02T05:50:01.479Z,1
2022-10-02T05:55:01.938Z,1
2022-10-02T06:00:02.311Z,1
2022-10-02T06:05:01.639Z,1
2022-10-02T06:10:02.144Z,2
2022-10-02T06:15:01.612Z,1
2022-10-02T06:20:03.552Z,1
2022-10-02T06:25:02.253Z,1
2022-10-02T06:30:01.726Z,2
2022-10-02T06:35:02.199Z,1
2022-10-02T06:40:01.570Z,1
2022-10-02T06:45:02.054Z,0
2022-10-02T06:50:01.403Z,2
2022-10-02T06:55:01.865Z,1
2022-10-02T07:00:02.226Z,1
2022-10-02T07:05:01.696Z,0
2022-10-02T07:10:02.249Z,1
2022-10-02T07:15:01.604Z,2
2022-10-02T07:20:02.025Z,1
2022-10-02T07:25:01.517Z,1
2022-10-02T07:30:01.871Z,0
2022-10-02T07:35:02.210Z,15
2022-10-02T07:40:01.716Z,19
2022-10-02T07:45:02.202Z,35
2022-10-02T07:50:01.671Z,32
2022-10-02T07:55:02.141Z,28
2022-10-02T08:00:01.619Z,24
2022-10-02T08:05:02.083Z,15
2022-10-02T08:10:01.581Z,15
2022-10-02T08:15:02.059Z,14
2022-10-02T08:20:01.479Z,14
2022-10-02T08:25:01.976Z,13
2022-10-02T08:30:01.457Z,10
2022-10-02T08:35:01.827Z,9
2022-10-02T08:40:02.325Z,7
2022-10-02T08:45:01.803Z,8
2022-10-02T08:50:02.269Z,6
2022-10-02T08:55:01.610Z,5
2022-10-02T09:00:01.962Z,5
2022-10-02T09:05:01.434Z,5
2022-10-02T09:10:01.818Z,5
2022-10-02T09:15:02.161Z,7
2022-10-02T09:20:01.576Z,9
2022-10-02T09:25:02.035Z,8
2022-10-02T09:30:01.536Z,10
2022-10-02T09:35:02.031Z,10
2022-10-02T09:40:01.581Z,10
2022-10-02T09:45:02.199Z,10
2022-10-02T09:50:01.716Z,10
2022-10-02T09:55:02.046Z,9
2022-10-02T10:00:01.403Z,8
2022-10-02T10:05:06.203Z,8
2022-10-02T10:10:02.208Z,7
2022-10-02T10:15:01.747Z,8
2022-10-02T10:20:02.062Z,6
2022-10-02T10:25:01.527Z,7
2022-10-02T10:30:01.996Z,6
2022-10-02T10:35:01.467Z,6
2022-10-02T10:40:01.851Z,5
2022-10-02T10:45:02.330Z,5
2022-10-02T10:50:01.853Z,5
2022-10-02T10:55:02.319Z,4
2022-10-02T11:00:01.708Z,4
2022-10-02T11:05:02.047Z,4
2022-10-02T11:10:01.426Z,4
2022-10-02T11:15:01.898Z,4
2022-10-02T11:20:01.439Z,3
2022-10-02T11:25:01.778Z,3
2022-10-02T11:30:02.132Z,4
2022-10-02T11:35:01.599Z,4
2022-10-02T11:40:02.102Z,4
2022-10-02T11:45:01.593Z,4
2022-10-02T11:50:01.956Z,4
2022-10-02T11:55:01.433Z,4
2022-10-02T12:00:01.942Z,4
2022-10-02T12:05:02.424Z,4
2022-10-02T12:10:01.916Z,4
2022-10-02T12:15:02.397Z,4
2022-10-02T12:20:01.937Z,4
2022-10-02T12:25:02.278Z,4
2022-10-02T12:30:01.752Z,4
2022-10-02T12:35:02.216Z,4
2022-10-02T12:40:01.705Z,4
2022-10-02T12:45:02.181Z,4
2022-10-02T12:50:01.649Z,4
2022-10-02T12:55:02.106Z,4
2022-10-02T13:00:01.586Z,4
2022-10-02T13:05:02.065Z,4
2022-10-02T13:10:01.450Z,4
2022-10-02T13:15:01.949Z,4
2022-10-02T13:20:01.502Z,4
2022-10-02T13:25:01.857Z,4
2022-10-02T13:30:02.327Z,4
2022-10-02T13:35:01.674Z,4
2022-10-02T13:40:02.076Z,4
2022-10-02T13:45:01.555Z,4
2022-10-02T13:50:02.022Z,4
2022-10-02T13:55:01.392Z,4
2022-10-02T14:00:01.878Z,4
2022-10-02T14:05:02.297Z,4
2022-10-02T14:10:01.800Z,4
2022-10-02T14:15:02.279Z,4
2022-10-02T14:20:01.829Z,4
2022-10-02T14:25:02.180Z,4
2022-10-02T14:30:01.654Z,4
2022-10-02T14:35:02.136Z,4
2022-10-02T14:40:01.535Z,4
2022-10-02T14:45:02.026Z,4
2022-10-02T14:50:01.387Z,4
2022-10-02T14:55:01.735Z,4
2022-10-02T15:00:02.223Z,4
2022-10-02T15:05:04.353Z,4
2022-10-02T15:10:02.317Z,4
2022-10-02T15:15:01.910Z,4
2022-10-02T15:20:01.529Z,4
2022-10-02T15:25:02.014Z,4
2022-10-02T15:30:01.545Z,4
2022-10-02T15:35:02.067Z,4
2022-10-02T15:40:01.775Z,4
2022-10-02T15:45:02.336Z,4
2022-10-02T15:50:01.800Z,4
2022-10-02T15:55:02.268Z,4
2022-10-02T16:00:01.871Z,4
2022-10-02T16:05:02.349Z,4
2022-10-02T16:10:01.878Z,4
2022-10-02T16:15:02.356Z,4
2022-10-02T16:20:01.898Z,4
2022-10-02T16:25:02.355Z,4
2022-10-02T16:30:01.695Z,4
2022-10-02T16:35:02.155Z,4
2022-10-02T16:40:01.652Z,4
2022-10-02T16:45:02.141Z,4
2022-10-02T16:50:01.602Z,4
2022-10-02T16:55:01.946Z,4
2022-10-02T17:00:02.299Z,4
2022-10-02T17:05:01.800Z,4
2022-10-02T17:10:02.208Z,4
2022-10-02T17:15:01.695Z,4
2022-10-02T17:20:02.145Z,4
2022-10-02T17:25:01.613Z,4
2022-10-02T17:30:01.981Z,4
2022-10-02T17:35:02.976Z,4
2022-10-02T17:40:01.355Z,4
2022-10-02T17:45:01.851Z,4
2022-10-02T17:50:02.313Z,4
2022-10-02T17:55:01.783Z,4
2022-10-02T18:00:04.117Z,4
2022-10-02T18:05:01.937Z,4
2022-10-02T18:10:01.386Z,4
2022-10-02T18:15:01.868Z,4
2022-10-02T18:20:01.361Z,4
2022-10-02T18:25:01.720Z,4
2022-10-02T18:30:02.195Z,4
2022-10-02T18:35:01.659Z,4
2022-10-02T18:40:06.835Z,4
2022-10-02T18:45:01.805Z,4
2022-10-02T18:50:02.266Z,4
2022-10-02T18:55:01.607Z,4
2022-10-02T19:00:02.131Z,4
2022-10-02T19:05:01.610Z,4
2022-10-02T19:10:01.991Z,4
2022-10-02T19:15:01.368Z,4
2022-10-02T19:20:01.915Z,4
2022-10-02T19:25:02.375Z,4
2022-10-02T19:30:01.866Z,4
2022-10-02T19:35:02.330Z,4
2022-10-02T19:40:01.834Z,4
2022-10-02T19:45:02.309Z,4
2022-10-02T19:50:01.641Z,4
2022-10-02T19:55:02.107Z,4
2022-10-02T20:00:01.471Z,4
2022-10-02T20:05:01.867Z,50
2022-10-02T20:10:02.370Z,19
2022-10-02T20:15:01.851Z,14
2022-10-02T20:20:02.415Z,156
2022-10-02T20:25:01.763Z,190
2022-10-02T20:30:02.241Z,21
2022-10-02T20:35:01.707Z,7
2022-10-02T20:40:02.570Z,12
2022-10-02T20:45:02.249Z,10
2022-10-02T20:50:01.596Z,8
2022-10-02T20:55:02.056Z,20
2022-10-02T21:00:01.553Z,16
2022-10-02T21:05:02.475Z,15
2022-10-02T21:10:01.875Z,18
2022-10-02T21:15:02.359Z,14
2022-10-02T21:20:01.780Z,28
2022-10-02T21:25:02.261Z,16
2022-10-02T21:30:01.626Z,25
2022-10-02T21:35:02.070Z,13
2022-10-02T21:40:01.588Z,13
2022-10-02T21:45:04.275Z,30
2022-10-02T21:50:01.983Z,21
2022-10-02T21:55:01.454Z,18
2022-10-02T22:00:01.970Z,17
2022-10-02T22:05:01.922Z,21
2022-10-02T22:10:01.448Z,21
2022-10-02T22:15:01.981Z,26
2022-10-02T22:20:01.765Z,18
2022-10-02T22:25:02.272Z,25
2022-10-02T22:30:01.788Z,24
2022-10-02T22:35:02.271Z,22
2022-10-02T22:40:01.775Z,27
2022-10-02T22:45:02.133Z,30
2022-10-02T22:50:01.473Z,33
2022-10-02T22:55:01.955Z,28
2022-10-02T23:00:01.439Z,25
2022-10-02T23:05:01.801Z,34
2022-10-02T23:10:02.201Z,36
2022-10-02T23:15:01.678Z,39
2022-10-02T23:20:02.213Z,37
2022-10-02T23:25:01.548Z,31
2022-10-02T23:30:01.894Z,40
2022-10-02T23:35:02.357Z,45
2022-10-02T23:40:01.858Z,48
2022-10-02T23:45:02.250Z,68
2022-10-02T23:50:01.615Z,74
2022-10-02T23:55:01.969Z,69
